Temp: 9.3°C   Baro: 1032.4mb
  Wind: 4.0mph   Dir: NE (42°)
  Rain: 0.0mm (0.0mm/hr)
  Solar: 847W/m2  Hum: 66%
 
Bath Spa Weather Historical Data
Daily Summary for November 2, 2019 Units:  English    Metric   Both
Next Day »
Daily Weekly Monthly Yearly Custom
  High: Low: Average:
Temperature: 54.5 °F 44.8 °F 50.2 °F
Dew Point: 50.9 °F 41.7 °F 46.8 °F
Humidity: 93% 76% 88%
Wind Speed: 28mph 0mph 7.4mph
Wind Gust: 33mph - -
Wind direction- - WSW
Pressure: 29.1 in 28.7 in -
Precipitation: 0 in    
Historical Graphs
 
 
Tabular Data for November 2, 2019
Time Temperature Dew Point Pressure Wind direction Wind Speed Wind Gust Humidity Rainfall Rate (Hourly) solar
00:00 51.1 °F 43.7 °F 29 in SW 12.1 mph 12 mph 76% 0 in 0.00 W/m2
00:05 50.9 °F 43.5 °F 29.1 in SW 6 mph 14 mph 76% 0 in 0.00 W/m2
00:10 50.9 °F 43.9 °F 29 in West 4 mph 18 mph 77% 0 in 0.00 W/m2
00:15 50.9 °F 43.9 °F 29 in WSW 14.1 mph 19 mph 77% 0 in 0.00 W/m2
00:20 50.7 °F 43.7 °F 29 in WSW 8.1 mph 15 mph 77% 0 in 0.00 W/m2
00:25 50.5 °F 43.5 °F 29 in SW 8.1 mph 9 mph 77% 0 in 0.00 W/m2
00:30 50.4 °F 43.3 °F 29 in SW 6.9 mph 12 mph 77% 0 in 0.00 W/m2
00:35 50.4 °F 43.3 °F 29 in SW 4 mph 10 mph 77% 0 in 0.00 W/m2
00:40 50.4 °F 43.7 °F 29 in SW 4 mph 9 mph 78% 0 in 0.00 W/m2
00:45 50.2 °F 43.5 °F 29 in SSW 8.9 mph 9 mph 78% 0 in 0.00 W/m2
00:50 50.2 °F 43.5 °F 29 in SW 8.9 mph 11 mph 78% 0 in 0.00 W/m2
00:55 50.4 °F 43.3 °F 29 in SSW 11 mph 18 mph 77% 0 in 0.00 W/m2
01:00 50.2 °F 43.3 °F 29 in SSW 10.1 mph 17 mph 77% 0 in 0.00 W/m2
01:05 50.2 °F 43.3 °F 29 in SSW 4.9 mph 13 mph 77% 0 in 0.00 W/m2
01:10 50 °F 43.2 °F 29 in SW 4 mph 11 mph 77% 0 in 0.00 W/m2
01:15 50 °F 43.3 °F 29 in South 4.9 mph 12 mph 78% 0 in 0.00 W/m2
01:20 50.2 °F 43.5 °F 29 in SSW 2.9 mph 13 mph 78% 0 in 0.00 W/m2
01:25 50.2 °F 43.5 °F 29 in SW 6 mph 10 mph 78% 0 in 0.00 W/m2
01:30 50.2 °F 43.5 °F 29 in WSW 6.9 mph 7 mph 78% 0 in 0.00 W/m2
01:35 50.2 °F 43.5 °F 29 in South 10.1 mph 14 mph 78% 0 in 0.00 W/m2
01:40 50.4 °F 44.1 °F 29 in SSW 8.9 mph 14 mph 79% 0 in 0.00 W/m2
01:45 50.5 °F 44.2 °F 29 in SSW 4 mph 5 mph 79% 0 in 0.00 W/m2
01:50 50.5 °F 44.6 °F 29 in SSW 8.9 mph 11 mph 80% 0 in 0.00 W/m2
01:55 50.5 °F 44.6 °F 29 in SSW 14.1 mph 14 mph 80% 0 in 0.00 W/m2
02:00 50.7 °F 44.8 °F 29 in South 8.1 mph 14 mph 80% 0 in 0.00 W/m2
02:05 50.7 °F 44.8 °F 29 in SSW 6 mph 13 mph 80% 0 in 0.00 W/m2
02:10 50.9 °F 45 °F 29 in SSE 18 mph 18 mph 80% 0 in 0.00 W/m2
02:15 51.3 °F 45.3 °F 29 in South 4.9 mph 13 mph 80% 0 in 0.00 W/m2
02:20 51.3 °F 45.7 °F 28.9 in South 6.9 mph 13 mph 81% 0 in 0.00 W/m2
02:25 51.3 °F 45.7 °F 28.9 in South 10.1 mph 15 mph 81% 0 in 0.00 W/m2
02:30 51.4 °F 45.9 °F 28.9 in SSW 2.9 mph 8 mph 81% 0 in 0.00 W/m2
02:35 51.6 °F 46 °F 28.9 in SSW 4.9 mph 7 mph 81% 0 in 0.00 W/m2
02:40 52 °F 46 °F 28.9 in SW 10.1 mph 14 mph 80% 0 in 0.00 W/m2
02:45 52 °F 46 °F 28.9 in South 8.9 mph 14 mph 80% 0 in 0.00 W/m2
02:50 52.3 °F 46.4 °F 28.9 in SSW 4 mph 15 mph 80% 0 in 0.00 W/m2
02:55 52 °F 46.4 °F 28.9 in SW 15 mph 23 mph 81% 0 in 0.00 W/m2
03:00 51.6 °F 46.2 °F 28.9 in SE 10.1 mph 16 mph 82% 0 in 0.00 W/m2
03:05 51.3 °F 46.2 °F 28.9 in South 8.9 mph 21 mph 83% 0.01 in 0.00 W/m2
03:10 51.1 °F 46.4 °F 28.9 in SSW 4 mph 10 mph 84% 0.01 in 0.00 W/m2
03:15 50.9 °F 46.6 °F 28.9 in SSE 8.9 mph 18 mph 85% 0.02 in 0.00 W/m2
03:20 50.7 °F 46.4 °F 28.9 in SSW 2.9 mph 15 mph 85% 0.03 in 0.00 W/m2
03:25 50.4 °F 46.6 °F 28.9 in SSW 10.1 mph 21 mph 87% 0.06 in 0.00 W/m2
03:30 50.2 °F 46.4 °F 28.9 in WSW 6.9 mph 15 mph 87% 0.09 in 0.00 W/m2
03:35 49.8 °F 46 °F 28.8 in South 8.9 mph 26 mph 87% 0.1 in 0.00 W/m2
03:40 49.6 °F 45.9 °F 28.8 in SW 8.1 mph 19 mph 87% 0.11 in 0.00 W/m2
03:45 49.3 °F 45.5 °F 28.8 in South 11 mph 19 mph 87% 0.12 in 0.00 W/m2
03:50 49.1 °F 45.7 °F 28.8 in South 21 mph 21 mph 88% 0.13 in 5.00 W/m2
03:55 49.1 °F 45.7 °F 28.8 in South 8.1 mph 22 mph 88% 0.13 in 7.00 W/m2
04:00 49.3 °F 46.2 °F 28.8 in South 15 mph 33 mph 89% 0.14 in 5.00 W/m2
04:05 49.3 °F 46.2 °F 28.8 in SSE 11 mph 21 mph 89% 0.13 in 12.00 W/m2
04:10 49.6 °F 46.6 °F 28.8 in SSW 6 mph 28 mph 89% 0.13 in 7.00 W/m2
04:15 49.5 °F 46.6 °F 28.8 in SW 8.1 mph 16 mph 90% 0.12 in 9.00 W/m2
04:20 49.6 °F 46.8 °F 28.8 in South 11 mph 23 mph 90% 0.11 in 18.00 W/m2
04:25 50.2 °F 47.3 °F 28.8 in SW 10.1 mph 20 mph 90% 0.09 in 30.00 W/m2
04:30 50.5 °F 48 °F 28.7 in South 6.9 mph 14 mph 91% 0.06 in 26.00 W/m2
04:35 51.1 °F 48.6 °F 28.7 in South 14.1 mph 26 mph 91% 0.05 in 44.00 W/m2
04:40 51.4 °F 48.6 °F 28.7 in South 8.9 mph 17 mph 90% 0.04 in 26.00 W/m2
04:45 51.6 °F 49.1 °F 28.7 in SW 14.1 mph 21 mph 91% 0.03 in 53.00 W/m2
04:50 52 °F 49.5 °F 28.7 in SW 8.9 mph 26 mph 91% 0.02 in 76.00 W/m2
04:55 52.9 °F 49.6 °F 28.7 in SSW 16.1 mph 22 mph 89% 0.02 in 65.00 W/m2
05:00 53.1 °F 49.6 °F 28.7 in WSW 23 mph 23 mph 88% 0.02 in 74.00 W/m2
05:05 52.9 °F 49.6 °F 28.7 in SW 14.1 mph 15 mph 89% 0.02 in 62.00 W/m2
05:10 53.1 °F 49.8 °F 28.7 in NW 14.1 mph 17 mph 89% 0.02 in 81.00 W/m2
05:15 53.1 °F 49.8 °F 28.7 in SW 11 mph 21 mph 89% 0.02 in 155.00 W/m2
05:20 53.4 °F 50 °F 28.7 in SW 8.9 mph 19 mph 88% 0.02 in 185.00 W/m2
05:25 53.8 °F 50.4 °F 28.7 in WSW 8.9 mph 12 mph 88% 0.01 in 125.00 W/m2
05:30 54 °F 49.8 °F 28.7 in SW 6.9 mph 22 mph 86% 0.01 in 90.00 W/m2
05:35 54 °F 49.8 °F 28.7 in WSW 8.9 mph 16 mph 86% 0.01 in 81.00 W/m2
05:40 54.1 °F 49.8 °F 28.7 in WSW 12.1 mph 18 mph 85% 0.01 in 134.00 W/m2
05:45 54.3 °F 49.6 °F 28.7 in SW 12.1 mph 24 mph 84% 0.01 in 104.00 W/m2
05:50 54.3 °F 49.6 °F 28.7 in WSW 21.9 mph 30 mph 84% 0.01 in 137.00 W/m2
05:55 54.5 °F 49.5 °F 28.7 in West 11 mph 33 mph 83% 0 in 51.00 W/m2
06:00 54.3 °F 48.9 °F 28.7 in West 17.9 mph 22 mph 82% 0 in 40.00 W/m2
06:05 54.1 °F 49.1 °F 28.8 in West 28 mph 33 mph 83% 0 in 35.00 W/m2
06:10 54 °F 48.9 °F 28.8 in WNW 19 mph 21 mph 83% 0 in 35.00 W/m2
06:15 54 °F 49.3 °F 28.8 in WSW 10.1 mph 24 mph 84% 0 in 160.00 W/m2
06:20 54 °F 49.3 °F 28.8 in WSW 8.9 mph 22 mph 84% 0 in 269.00 W/m2
06:25 54 °F 49.3 °F 28.8 in West 15 mph 22 mph 84% 0 in 149.00 W/m2
06:30 54 °F 49.3 °F 28.8 in West 16.1 mph 28 mph 84% 0 in 292.00 W/m2
06:35 54.1 °F 49.1 °F 28.8 in WNW 6 mph 17 mph 83% 0 in 366.00 W/m2
06:40 53.8 °F 48.7 °F 28.8 in WNW 12.1 mph 26 mph 83% 0 in 105.00 W/m2
06:45 53.4 °F 48.4 °F 28.8 in West 12.1 mph 19 mph 83% 0 in 174.00 W/m2
06:50 53.4 °F 48.4 °F 28.8 in West 11 mph 19 mph 83% 0 in 234.00 W/m2
06:55 53.2 °F 48.2 °F 28.8 in West 15 mph 24 mph 83% 0 in 283.00 W/m2
07:00 53.4 °F 48.4 °F 28.8 in WNW 8.9 mph 19 mph 83% 0 in 316.00 W/m2
07:05 53.6 °F 48.2 °F 28.8 in WNW 13 mph 22 mph 82% 0 in 352.00 W/m2
07:10 53.8 °F 48 °F 28.8 in West 8.1 mph 20 mph 81% 0 in 288.00 W/m2
07:15 53.8 °F 48 °F 28.8 in WNW 11 mph 25 mph 81% 0 in 132.00 W/m2
07:20 53.6 °F 47.8 °F 28.8 in WSW 10.1 mph 22 mph 81% 0 in 134.00 W/m2
07:25 53.4 °F 48 °F 28.8 in NW 6.9 mph 13 mph 82% 0 in 213.00 W/m2
07:30 53.6 °F 48.2 °F 28.8 in WSW 13 mph 16 mph 82% 0 in 163.00 W/m2
07:35 53.6 °F 48.2 °F 28.8 in WNW 13 mph 19 mph 82% 0 in 230.00 W/m2
07:40 53.4 °F 48 °F 28.8 in WNW 8.9 mph 17 mph 82% 0 in 206.00 W/m2
07:45 53.6 °F 48.6 °F 28.8 in WNW 12.1 mph 18 mph 83% 0 in 142.00 W/m2
07:50 53.6 °F 48.6 °F 28.8 in West 4 mph 11 mph 83% 0 in 120.00 W/m2
07:55 53.4 °F 48.4 °F 28.8 in WNW 6 mph 14 mph 83% 0 in 116.00 W/m2
08:00 53.2 °F 48.2 °F 28.8 in WNW 4 mph 12 mph 83% 0 in 77.00 W/m2
08:05 53.2 °F 48.6 °F 28.8 in WNW 4 mph 11 mph 84% 0 in 69.00 W/m2
08:10 52.5 °F 48.2 °F 28.8 in WNW 6.9 mph 10 mph 85% 0.01 in 93.00 W/m2
08:15 52.3 °F 48.6 °F 28.8 in West 4 mph 9 mph 87% 0.01 in 84.00 W/m2
08:20 52.3 °F 48.9 °F 28.8 in West 4.9 mph 8 mph 88% 0.01 in 83.00 W/m2
08:25 52.3 °F 48.9 °F 28.8 in WSW 4 mph 15 mph 88% 0.02 in 74.00 W/m2
08:30 52.3 °F 49.3 °F 28.8 in WSW 2.9 mph 9 mph 89% 0.02 in 97.00 W/m2
08:35 52.2 °F 49.1 °F 28.8 in WSW 4 mph 9 mph 89% 0.03 in 149.00 W/m2
08:40 52.3 °F 49.5 °F 28.8 in SW 6 mph 9 mph 90% 0.03 in 160.00 W/m2
08:45 52.5 °F 49.6 °F 28.8 in West 8.1 mph 13 mph 90% 0.03 in 162.00 W/m2
08:50 52.5 °F 49.6 °F 28.8 in SW 4 mph 14 mph 90% 0.03 in 139.00 W/m2
08:55 52.7 °F 49.8 °F 28.8 in WSW 4.9 mph 14 mph 90% 0.03 in 142.00 W/m2
09:00 52.7 °F 49.8 °F 28.8 in WSW 8.1 mph 14 mph 90% 0.04 in 65.00 W/m2
09:05 52.7 °F 49.8 °F 28.8 in WSW 6 mph 13 mph 90% 0.04 in 49.00 W/m2
09:10 52.3 °F 49.5 °F 28.8 in SW 6.9 mph 13 mph 90% 0.05 in 49.00 W/m2
09:15 52.3 °F 49.8 °F 28.8 in SW 4.9 mph 10 mph 91% 0.05 in 76.00 W/m2
09:20 52.2 °F 49.6 °F 28.8 in West 6.9 mph 16 mph 91% 0.06 in 51.00 W/m2
09:25 52.2 °F 49.6 °F 28.8 in West 10.1 mph 11 mph 91% 0.05 in 26.00 W/m2
09:30 52.2 °F 49.6 °F 28.8 in West 4.9 mph 10 mph 91% 0.06 in 39.00 W/m2
09:35 52 °F 49.6 °F 28.8 in WSW 10.1 mph 10 mph 92% 0.07 in 47.00 W/m2
09:40 52 °F 49.6 °F 28.8 in West 4 mph 10 mph 92% 0.09 in 40.00 W/m2
09:45 52 °F 49.6 °F 28.8 in WSW 6 mph 9 mph 92% 0.13 in 44.00 W/m2
09:50 52 °F 49.6 °F 28.8 in WNW 16.1 mph 16 mph 92% 0.16 in 46.00 W/m2
09:55 51.8 °F 49.6 °F 28.8 in West 8.1 mph 13 mph 92% 0.17 in 42.00 W/m2
10:00 51.4 °F 49.3 °F 28.8 in WSW 12.1 mph 14 mph 92% 0.19 in 32.00 W/m2
10:05 51.4 °F 49.3 °F 28.8 in WNW 4.9 mph 18 mph 92% 0.21 in 40.00 W/m2
10:10 51.4 °F 49.5 °F 28.8 in WNW 13 mph 17 mph 93% 0.2 in 44.00 W/m2
10:15 52.2 °F 50.2 °F 28.8 in WSW 12.1 mph 24 mph 93% 0.2 in 47.00 W/m2
10:20 52.5 °F 50.5 °F 28.8 in West 17 mph 20 mph 93% 0.19 in 62.00 W/m2
10:25 52.9 °F 50.9 °F 28.8 in West 17 mph 17 mph 93% 0.18 in 62.00 W/m2
10:30 52.9 °F 50.5 °F 28.8 in West 15 mph 29 mph 92% 0.18 in 23.00 W/m2
10:35 52.5 °F 50.2 °F 28.8 in West 6.9 mph 24 mph 92% 0.2 in 16.00 W/m2
10:40 52.2 °F 49.8 °F 28.8 in West 12.1 mph 27 mph 92% 0.23 in 9.00 W/m2
10:45 51.8 °F 49.6 °F 28.8 in WNW 13 mph 22 mph 92% 0.2 in 11.00 W/m2
10:50 50.9 °F 48.7 °F 28.8 in NW 11 mph 24 mph 92% 0.23 in 14.00 W/m2
10:55 50.7 °F 48.6 °F 28.8 in WNW 15 mph 21 mph 92% 0.24 in 11.00 W/m2
11:00 50.7 °F 48.6 °F 28.9 in West 8.9 mph 17 mph 92% 0.21 in 9.00 W/m2
11:05 50.9 °F 48.7 °F 28.9 in WNW 8.9 mph 15 mph 92% 0.2 in 9.00 W/m2
11:10 50.9 °F 48.7 °F 28.9 in West 11 mph 13 mph 92% 0.2 in 14.00 W/m2
11:15 50.9 °F 48.9 °F 28.9 in West 4 mph 8 mph 93% 0.21 in 12.00 W/m2
11:20 51.1 °F 49.1 °F 28.8 in West 4 mph 8 mph 93% 0.21 in 14.00 W/m2
11:25 51.8 °F 49.8 °F 28.8 in West 14.1 mph 17 mph 93% 0.22 in 18.00 W/m2
11:30 52.2 °F 50.2 °F 28.9 in WSW 13 mph 17 mph 93% 0.2 in 19.00 W/m2
11:35 52.2 °F 50.2 °F 28.9 in WSW 15 mph 17 mph 93% 0.17 in 21.00 W/m2
11:40 52.2 °F 50.2 °F 28.9 in WSW 8.9 mph 21 mph 93% 0.13 in 28.00 W/m2
11:45 52.3 °F 50.4 °F 28.9 in West 4 mph 15 mph 93% 0.11 in 21.00 W/m2
11:50 52.3 °F 50 °F 28.9 in SW 8.1 mph 15 mph 92% 0.06 in 9.00 W/m2
11:55 52.2 °F 49.8 °F 28.9 in West 8.9 mph 21 mph 92% 0.04 in 12.00 W/m2
12:00 52 °F 49.6 °F 28.9 in WSW 8.1 mph 15 mph 92% 0.05 in 12.00 W/m2
12:05 51.8 °F 49.6 °F 28.9 in WSW 12.1 mph 23 mph 92% 0.05 in 9.00 W/m2
12:10 51.6 °F 49.5 °F 28.9 in West 6 mph 17 mph 92% 0.05 in 9.00 W/m2
12:15 51.6 °F 49.5 °F 28.9 in West 11 mph 20 mph 92% 0.05 in 5.00 W/m2
12:20 51.6 °F 49.5 °F 28.9 in West 11 mph 18 mph 92% 0.06 in 5.00 W/m2
12:25 51.6 °F 49.5 °F 28.9 in WSW 11 mph 19 mph 92% 0.05 in 0.00 W/m2
12:30 51.4 °F 49.3 °F 28.9 in WSW 12.1 mph 20 mph 92% 0.05 in 0.00 W/m2
12:35 51.3 °F 49.1 °F 28.9 in WSW 4.9 mph 18 mph 92% 0.06 in 0.00 W/m2
12:40 51.3 °F 49.1 °F 28.9 in WSW 8.1 mph 13 mph 92% 0.06 in 0.00 W/m2
12:45 51.1 °F 48.9 °F 28.9 in SW 16.1 mph 17 mph 92% 0.06 in 0.00 W/m2
12:50 51.1 °F 48.9 °F 28.9 in WSW 6.9 mph 16 mph 92% 0.06 in 0.00 W/m2
12:55 50.7 °F 48.6 °F 28.9 in West 14.1 mph 16 mph 92% 0.06 in 0.00 W/m2
13:00 50.7 °F 48.6 °F 28.9 in WSW 12.1 mph 14 mph 92% 0.06 in 0.00 W/m2
13:05 50.7 °F 48.6 °F 28.9 in WSW 6.9 mph 13 mph 92% 0.05 in 0.00 W/m2
13:10 50.5 °F 48.4 °F 28.9 in WSW 8.1 mph 12 mph 92% 0.04 in 0.00 W/m2
13:15 50.5 °F 48.4 °F 28.9 in WSW 6.9 mph 11 mph 92% 0.04 in 0.00 W/m2
13:20 50.5 °F 48.4 °F 28.9 in WSW 6 mph 13 mph 92% 0.03 in 0.00 W/m2
13:25 50.5 °F 48.4 °F 28.9 in West 10.1 mph 16 mph 92% 0.04 in 0.00 W/m2
13:30 50.5 °F 48.4 °F 28.9 in WSW 6.9 mph 14 mph 92% 0.04 in 0.00 W/m2
13:35 50.5 °F 48.4 °F 28.9 in West 6 mph 14 mph 92% 0.03 in 0.00 W/m2
13:40 50.5 °F 48.4 °F 28.9 in WSW 4.9 mph 11 mph 92% 0.03 in 0.00 W/m2
13:45 50.5 °F 48.4 °F 28.9 in SW 10.1 mph 11 mph 92% 0.04 in 0.00 W/m2
13:50 50.5 °F 48.4 °F 28.9 in SW 8.1 mph 14 mph 92% 0.03 in 0.00 W/m2
13:55 50.5 °F 48.4 °F 28.9 in SW 6 mph 14 mph 92% 0.03 in 0.00 W/m2
14:00 50.5 °F 48.4 °F 28.9 in West 4.9 mph 11 mph 92% 0.02 in 0.00 W/m2
14:05 50.5 °F 48.4 °F 28.9 in WSW 4 mph 12 mph 92% 0.02 in 0.00 W/m2
14:10 50.4 °F 48.2 °F 28.9 in SW 6 mph 11 mph 92% 0.02 in 0.00 W/m2
14:15 50.4 °F 48.2 °F 28.9 in SW 6.9 mph 14 mph 92% 0.02 in 0.00 W/m2
14:20 50.2 °F 48 °F 28.9 in WSW 6.9 mph 13 mph 92% 0.02 in 0.00 W/m2
14:25 50.2 °F 48 °F 28.9 in WSW 4.9 mph 17 mph 92% 0.02 in 0.00 W/m2
14:30 50.2 °F 48 °F 28.9 in SW 10.1 mph 15 mph 92% 0.02 in 0.00 W/m2
14:35 50.2 °F 48 °F 28.9 in WSW 6.9 mph 15 mph 92% 0.02 in 0.00 W/m2
14:40 50.2 °F 48 °F 28.9 in SW 6 mph 10 mph 92% 0.02 in 0.00 W/m2
14:45 50.2 °F 48 °F 28.9 in SW 10.1 mph 13 mph 92% 0.01 in 0.00 W/m2
14:50 50.2 °F 48 °F 28.9 in West 6 mph 11 mph 92% 0.01 in 0.00 W/m2
14:55 50 °F 47.8 °F 28.9 in SW 6.9 mph 10 mph 92% 0.01 in 0.00 W/m2
15:00 50 °F 47.8 °F 28.9 in WSW 6.9 mph 13 mph 92% 0.01 in 0.00 W/m2
15:05 50 °F 47.8 °F 28.9 in SW 6.9 mph 13 mph 92% 0.01 in 0.00 W/m2
15:10 49.8 °F 47.7 °F 28.9 in WSW 6.9 mph 12 mph 92% 0.02 in 0.00 W/m2
15:15 49.8 °F 47.7 °F 28.9 in SW 6.9 mph 8 mph 92% 0.02 in 0.00 W/m2
15:20 49.6 °F 47.5 °F 28.9 in WSW 6 mph 12 mph 92% 0.02 in 0.00 W/m2
15:25 49.6 °F 47.5 °F 28.9 in WSW 13 mph 14 mph 92% 0.01 in 0.00 W/m2
15:30 49.5 °F 47.3 °F 28.9 in SSW 6.9 mph 14 mph 92% 0.01 in 0.00 W/m2
15:35 49.5 °F 47.3 °F 28.9 in WSW 10.1 mph 10 mph 92% 0.01 in 0.00 W/m2
15:40 49.5 °F 47.3 °F 28.9 in WSW 8.9 mph 15 mph 92% 0.01 in 0.00 W/m2
15:45 49.5 °F 47.3 °F 28.9 in SW 4.9 mph 12 mph 92% 0.01 in 0.00 W/m2
15:50 49.3 °F 47.1 °F 28.9 in SW 8.9 mph 13 mph 92% 0.01 in 0.00 W/m2
15:55 49.3 °F 47.1 °F 28.9 in WSW 10.1 mph 10 mph 92% 0.01 in 0.00 W/m2
16:00 49.3 °F 47.1 °F 28.9 in SSW 6.9 mph 13 mph 92% 0.01 in 0.00 W/m2
16:05 49.3 °F 47.1 °F 28.9 in SSW 4.9 mph 13 mph 92% 0.01 in 0.00 W/m2
16:10 49.3 °F 47.1 °F 28.9 in WSW 2.9 mph 9 mph 92% 0 in 0.00 W/m2
16:15 49.3 °F 47.1 °F 28.9 in WSW 4 mph 12 mph 92% 0 in 0.00 W/m2
16:20 49.3 °F 47.1 °F 28.9 in SW 6.9 mph 13 mph 92% 0 in 0.00 W/m2
16:25 49.3 °F 47.1 °F 28.9 in WSW 6 mph 9 mph 92% 0 in 0.00 W/m2
16:30 49.3 °F 47.1 °F 28.9 in WSW 15 mph 16 mph 92% 0.01 in 0.00 W/m2
16:35 49.3 °F 47.1 °F 28.9 in WSW 6 mph 12 mph 92% 0.01 in 0.00 W/m2
16:40 49.5 °F 47.3 °F 28.9 in WSW 10.1 mph 14 mph 92% 0.01 in 0.00 W/m2
16:45 49.5 °F 47.3 °F 28.9 in WSW 4.9 mph 15 mph 92% 0.01 in 0.00 W/m2
16:50 49.5 °F 46.9 °F 28.9 in SW 4 mph 14 mph 91% 0.01 in 0.00 W/m2
16:55 49.5 °F 46.9 °F 28.9 in WSW 8.9 mph 10 mph 91% 0.01 in 0.00 W/m2
17:00 49.6 °F 47.1 °F 28.9 in West 6 mph 13 mph 91% 0.01 in 0.00 W/m2
17:05 49.6 °F 46.8 °F 28.9 in WSW 6 mph 14 mph 90% 0.01 in 0.00 W/m2
17:10 49.5 °F 46.6 °F 28.9 in SW 6.9 mph 14 mph 90% 0.01 in 0.00 W/m2
17:15 49.5 °F 46.6 °F 28.9 in WSW 6 mph 12 mph 90% 0.01 in 0.00 W/m2
17:20 49.5 °F 46.6 °F 28.9 in WSW 6.9 mph 8 mph 90% 0.01 in 0.00 W/m2
17:25 49.3 °F 46.4 °F 28.9 in SW 4 mph 13 mph 90% 0.01 in 0.00 W/m2
17:30 49.3 °F 46.4 °F 28.9 in SSW 4 mph 6 mph 90% 0 in 0.00 W/m2
17:35 49.1 °F 46.2 °F 28.9 in SW 6.9 mph 18 mph 90% 0 in 0.00 W/m2
17:40 49.1 °F 46.2 °F 28.9 in West 4 mph 10 mph 90% 0 in 0.00 W/m2
17:45 49.1 °F 46.2 °F 28.9 in SW 8.1 mph 11 mph 90% 0 in 0.00 W/m2
17:50 48.9 °F 46 °F 28.9 in WSW 4.9 mph 11 mph 90% 0 in 0.00 W/m2
17:55 48.9 °F 46 °F 28.9 in WSW 6 mph 15 mph 90% 0 in 0.00 W/m2
18:00 48.9 °F 46 °F 28.9 in WSW 6 mph 13 mph 90% 0 in 0.00 W/m2
18:05 48.9 °F 46 °F 28.9 in West 6 mph 10 mph 90% 0 in 0.00 W/m2
18:10 48.9 °F 46 °F 28.9 in SW 8.1 mph 14 mph 90% 0 in 0.00 W/m2
18:15 48.9 °F 46 °F 28.9 in SW 6.9 mph 13 mph 90% 0 in 0.00 W/m2
18:20 48.9 °F 45.9 °F 28.9 in WSW 4.9 mph 8 mph 89% 0 in 0.00 W/m2
18:25 48.9 °F 45.9 °F 28.9 in SW 8.1 mph 12 mph 89% 0 in 0.00 W/m2
18:30 48.9 °F 45.9 °F 28.9 in WSW 6 mph 9 mph 89% 0 in 0.00 W/m2
18:35 48.7 °F 45.7 °F 28.9 in SW 6 mph 11 mph 89% 0 in 0.00 W/m2
18:40 48.7 °F 45.7 °F 28.9 in WSW 2.9 mph 10 mph 89% 0 in 0.00 W/m2
18:45 48.7 °F 45.7 °F 28.9 in SW 4.9 mph 13 mph 89% 0 in 0.00 W/m2
18:50 48.7 °F 45.7 °F 28.9 in WSW 6.9 mph 9 mph 89% 0 in 0.00 W/m2
18:55 48.7 °F 45.3 °F 28.9 in SW 4.9 mph 11 mph 88% 0 in 0.00 W/m2
19:00 48.7 °F 45.7 °F 28.9 in WSW 2 mph 5 mph 89% 0 in 0.00 W/m2
19:05 48.6 °F 45.1 °F 28.9 in WSW 2.9 mph 8 mph 88% 0 in 0.00 W/m2
19:10 48.6 °F 45.1 °F 28.9 in WSW 4.9 mph 11 mph 88% 0 in 0.00 W/m2
19:15 48.6 °F 45.1 °F 28.9 in WSW 0.9 mph 8 mph 88% 0 in 0.00 W/m2
19:20 48.6 °F 45.1 °F 28.9 in WSW 8.1 mph 11 mph 88% 0 in 0.00 W/m2
19:25 48.6 °F 45.1 °F 28.9 in SW 6 mph 7 mph 88% 0 in 0.00 W/m2
19:30 48.7 °F 45 °F 28.9 in WSW 2 mph 9 mph 87% 0 in 0.00 W/m2
19:35 48.6 °F 44.8 °F 28.9 in WSW 4 mph 5 mph 87% 0 in 0.00 W/m2
19:40 48.6 °F 44.8 °F 28.9 in West 6 mph 9 mph 87% 0 in 0.00 W/m2
19:45 48.6 °F 44.8 °F 28.9 in WSW 4.9 mph 10 mph 87% 0 in 0.00 W/m2
19:50 48.6 °F 44.8 °F 28.9 in SW 6 mph 8 mph 87% 0 in 0.00 W/m2
19:55 48.4 °F 44.4 °F 28.9 in SW 6.9 mph 12 mph 86% 0 in 0.00 W/m2
20:00 48.4 °F 44.4 °F 28.9 in SW 8.1 mph 13 mph 86% 0 in 0.00 W/m2
20:05 48.4 °F 44.4 °F 28.9 in WSW 8.9 mph 11 mph 86% 0 in 0.00 W/m2
20:10 48.2 °F 44.2 °F 28.9 in SW 8.9 mph 13 mph 86% 0 in 0.00 W/m2
20:15 48 °F 44.1 °F 28.9 in SW 4 mph 5 mph 86% 0 in 0.00 W/m2
20:20 48 °F 44.1 °F 28.9 in WSW 6.9 mph 12 mph 86% 0 in 0.00 W/m2
20:25 48 °F 44.1 °F 28.9 in WSW 6.9 mph 11 mph 86% 0 in 0.00 W/m2
20:30 47.8 °F 43.9 °F 28.9 in WSW 2 mph 8 mph 86% 0 in 0.00 W/m2
20:35 47.8 °F 43.9 °F 28.9 in WSW 4 mph 5 mph 86% 0 in 0.00 W/m2
20:40 47.8 °F 43.9 °F 28.9 in SW 6.9 mph 13 mph 86% 0 in 0.00 W/m2
20:45 47.7 °F 43.7 °F 28.9 in West 4.9 mph 6 mph 86% 0 in 0.00 W/m2
20:50 47.7 °F 43.7 °F 28.9 in WSW 4 mph 7 mph 86% 0 in 0.00 W/m2
20:55 47.7 °F 43.7 °F 28.9 in WSW 8.1 mph 8 mph 86% 0 in 0.00 W/m2
21:00 47.5 °F 43.5 °F 28.9 in WNW 0.9 mph 3 mph 86% 0 in 0.00 W/m2
21:05 47.5 °F 43.5 °F 28.9 in West 0.9 mph 4 mph 86% 0 in 0.00 W/m2
21:10 47.3 °F 43.3 °F 28.9 in Calm   5 mph 86% 0 in 0.00 W/m2
21:15 47.3 °F 43.7 °F 28.9 in NW 2 mph 3 mph 87% 0 in 0.00 W/m2
21:20 47.1 °F 43.2 °F 28.9 in Calm   5 mph 86% 0 in 0.00 W/m2
21:25 47.1 °F 43.5 °F 28.9 in WSW 2 mph 7 mph 87% 0 in 0.00 W/m2
21:30 47.1 °F 43.5 °F 28.9 in Calm     87% 0 in 0.00 W/m2
21:35 46.9 °F 43.3 °F 28.9 in Calm   1 mph 87% 0 in 0.00 W/m2
21:40 46.9 °F 43.3 °F 28.9 in Calm     87% 0 in 0.00 W/m2
21:45 46.9 °F 43.3 °F 28.9 in Calm   1 mph 87% 0 in 0.00 W/m2
21:50 46.9 °F 43.3 °F 28.9 in Calm     87% 0 in 0.00 W/m2
21:55 46.8 °F 43.2 °F 28.9 in WSW 2 mph 4 mph 87% 0 in 0.00 W/m2
22:00 46.8 °F 43.2 °F 28.9 in Calm     87% 0 in 0.00 W/m2
22:05 46.8 °F 43.2 °F 28.9 in Calm     87% 0 in 0.00 W/m2
22:10 46.6 °F 43 °F 28.9 in Calm     87% 0 in 0.00 W/m2
22:15 46.4 °F 42.8 °F 28.9 in Calm     87% 0 in 0.00 W/m2
22:20 46.2 °F 42.8 °F 28.9 in Calm     88% 0 in 0.00 W/m2
22:25 45.7 °F 42.3 °F 28.9 in Calm     88% 0 in 0.00 W/m2
22:30 45.3 °F 41.9 °F 28.9 in Calm   1 mph 88% 0 in 0.00 W/m2
22:35 45.1 °F 42.1 °F 28.9 in Calm   2 mph 89% 0 in 0.00 W/m2
22:40 45.1 °F 42.1 °F 28.9 in Calm     89% 0 in 0.00 W/m2
22:45 45.1 °F 42.1 °F 28.9 in WSW 2 mph 2 mph 89% 0 in 0.00 W/m2
22:50 45 °F 41.9 °F 28.9 in Calm   3 mph 89% 0 in 0.00 W/m2
22:55 44.8 °F 41.7 °F 28.9 in WSW 2 mph 3 mph 89% 0 in 0.00 W/m2
23:00 44.8 °F 42.1 °F 28.9 in Calm   2 mph 90% 0 in 0.00 W/m2
23:05 44.8 °F 42.1 °F 28.9 in WSW 0.9 mph 2 mph 90% 0 in 0.00 W/m2
23:10 44.8 °F 42.1 °F 28.9 in Calm   2 mph 90% 0 in 0.00 W/m2
23:15 44.8 °F 42.1 °F 28.9 in WSW 0.9 mph 4 mph 90% 0 in 0.00 W/m2
23:20 44.8 °F 42.1 °F 28.9 in WSW 0.9 mph 3 mph 90% 0 in 0.00 W/m2
23:25 44.8 °F 42.1 °F 28.9 in Calm   4 mph 90% 0 in 0.00 W/m2
23:30 44.8 °F 42.1 °F 28.9 in Calm   3 mph 90% 0 in 0.00 W/m2
23:35 44.8 °F 42.1 °F 28.9 in WSW 2 mph 3 mph 90% 0 in 0.00 W/m2
23:40 44.8 °F 42.1 °F 28.9 in Calm   1 mph 90% 0 in 0.00 W/m2
23:45 44.8 °F 42.1 °F 28.9 in Calm   2 mph 90% 0 in 0.00 W/m2
23:50 45 °F 42.3 °F 28.9 in Calm   1 mph 90% 0 in 0.00 W/m2
23:55 45 °F 42.3 °F 28.9 in Calm   1 mph 90% 0 in 0.00 W/m2